Aeroporto :
LOGIN :

Iscrizione | Disclaimer

   EN    FR    IT 

 










Sommario :    VFR   VFR Marginale   IFR   IFR Intensivo   IFR Molto Intensivo
Visibilità : 
Base nubi : 
>= 8 km
>= 3000ft
5 / 8 km
1000 / 3000 ft
1500m / 5 km
500 / 1000 ft
800 / 1500m
200 / 500 ft
< 800m
< 200 ft
Simboli :   Temporali  Nebbia  Neve Forte  Precipitazioni Forti  Vento > 20 kt
SIGMETs :   Varie  Temporali  Ghiacco  Turbolenza  Onda orograficha  Ceneri Vulcaniche







- Altitudine del aeroporto : 495 ft
- Codice IATA : BUD


LHBP - Budapest Ferihegy

ULTIMO METAR :
  • 211830Z 31007KT CAVOK 25/17 Q1019 NOSIG

METARs OBSOLETI :
  • 211800Z 32007KT CAVOK 26/17 Q1019 NOSIG
  • 211730Z 32008KT CAVOK 27/17 Q1019 NOSIG
  • 211700Z 32008KT CAVOK 27/17 Q1018 NOSIG
  • 211630Z 31009KT CAVOK 27/18 Q1018 NOSIG
  • 211600Z 32011KT CAVOK 28/19 Q1018 NOSIG

TAF TAF LHBP
Valido dal 21 a 18 ore il 22 a 18 ore UTC


211715Z 2118/2218 33012KT CAVOK
BECMG 2119/2122 35004KT
BECMG 2210/2212 33012KT
Nessun NOTAM noto per questo aeroporto.
1 SIGMET conosciuto per la FIR Budapest (LHCC) :
 
Temporali frequenti
LHCC SIGMET 03 VALID 211730/211900 LHBM
LHCC BUDAPEST FIR FRQ TS OBS WI N4830 E02107 - N4715 E02046 - N4714 E02154 - N4828 E02213 - N4825 E02144 - N4838 E02130 - N4830 E02107 TOP FL400 MOV E NC=



MetMap, La meteo Aeronautica in un colpo d'occhio ! - Copyright ORBIFLY Dicembre 2007 - Disclaimer

ORBIFLY MET'MAP TEAM :

Programmazione e sviluppo : Alexandra Zaïnal
Concezione e sviluppo : Baudouin d'Aumeries
Co-Programmazione e sviluppo : Marc-Olivier Méhu
Supporto tecnico e logistico : Manuel Goepfert
Aiuto per la traduzione : Arnaldo La Scala

Contatto : metmap@orbifly.com




FONTI E CREDITI :

   NOAA